Auburn, West Virginia
Current Conditions -  °F | °C
As of 2:55 AM on Wednesday 22 Oct 2014 (Local Time) from KW22 Reporting Station
Haze Haze  
Wind Chill:   Ceiling: 300
Heat Index:   Visibility: 6mi
Dew Point:   Wind: 7mph
Humidity: 100%   Direction: 310°NW
Pressure: 30.03"   Gusts: NA
Location:  39.1°N, 80.86°W
Report Text: KW22 220655Z AUTO 31006KT 6SM BR OVC003 06/06 A3003 RMK AO2
Loading
Personal Weather Stations






























Interactive Weather Map
Tropical Storm Tracking
New forecast layout! Learn more

10-Day Weather Forecast

Advertisements
Track Severe Weather on mobile